sensor_id;sensor_type;location;lat;lon;timestamp;P1;durP1;ratioP1;P2;durP2;ratioP2
34278;SDS011;20538;51.528;9.942;2022-12-18T00:01:04;48.08;;;18.92;;
34278;SDS011;20538;51.528;9.942;2022-12-18T00:03:38;46.53;;;19.27;;
34278;SDS011;20538;51.528;9.942;2022-12-18T00:06:04;44.05;;;19.30;;
34278;SDS011;20538;51.528;9.942;2022-12-18T00:08:29;46.20;;;18.67;;
34278;SDS011;20538;51.528;9.942;2022-12-18T00:10:55;54.35;;;19.58;;
34278;SDS011;20538;51.528;9.942;2022-12-18T00:13:27;50.92;;;20.00;;
34278;SDS011;20538;51.528;9.942;2022-12-18T00:15:53;53.80;;;22.17;;
34278;SDS011;20538;51.528;9.942;2022-12-18T00:18:19;61.25;;;23.23;;
34278;SDS011;20538;51.528;9.942;2022-12-18T00:20:44;50.72;;;21.52;;
34278;SDS011;20538;51.528;9.942;2022-12-18T00:23:10;51.72;;;20.90;;
34278;SDS011;20538;51.528;9.942;2022-12-18T00:25:36;51.40;;;21.17;;
34278;SDS011;20538;51.528;9.942;2022-12-18T00:28:02;52.90;;;20.77;;
34278;SDS011;20538;51.528;9.942;2022-12-18T00:30:28;56.20;;;20.45;;
34278;SDS011;20538;51.528;9.942;2022-12-18T00:32:54;56.60;;;22.48;;
34278;SDS011;20538;51.528;9.942;2022-12-18T00:35:20;51.47;;;21.63;;
34278;SDS011;20538;51.528;9.942;2022-12-18T00:37:45;50.13;;;20.92;;
34278;SDS011;20538;51.528;9.942;2022-12-18T00:40:11;51.55;;;20.90;;
34278;SDS011;20538;51.528;9.942;2022-12-18T00:42:37;55.95;;;21.02;;
34278;SDS011;20538;51.528;9.942;2022-12-18T00:45:22;54.92;;;21.50;;
34278;SDS011;20538;51.528;9.942;2022-12-18T00:47:48;54.30;;;19.77;;
34278;SDS011;20538;51.528;9.942;2022-12-18T00:50:14;53.35;;;21.00;;
34278;SDS011;20538;51.528;9.942;2022-12-18T00:52:39;61.47;;;22.55;;
34278;SDS011;20538;51.528;9.942;2022-12-18T00:55:05;58.97;;;21.45;;
34278;SDS011;20538;51.528;9.942;2022-12-18T00:57:31;60.95;;;21.77;;
34278;SDS011;20538;51.528;9.942;2022-12-18T00:59:57;56.60;;;20.08;;
34278;SDS011;20538;51.528;9.942;2022-12-18T01:02:22;56.25;;;21.75;;
34278;SDS011;20538;51.528;9.942;2022-12-18T01:04:48;48.05;;;20.02;;
34278;SDS011;20538;51.528;9.942;2022-12-18T01:07:13;55.55;;;21.20;;
34278;SDS011;20538;51.528;9.942;2022-12-18T01:09:39;60.58;;;21.77;;
34278;SDS011;20538;51.528;9.942;2022-12-18T01:12:05;53.58;;;20.85;;
34278;SDS011;20538;51.528;9.942;2022-12-18T01:14:31;45.60;;;18.70;;
34278;SDS011;20538;51.528;9.942;2022-12-18T01:16:56;52.22;;;21.20;;
34278;SDS011;20538;51.528;9.942;2022-12-18T01:19:22;52.38;;;21.88;;
34278;SDS011;20538;51.528;9.942;2022-12-18T01:21:48;63.63;;;24.42;;
34278;SDS011;20538;51.528;9.942;2022-12-18T01:24:14;59.67;;;22.55;;
34278;SDS011;20538;51.528;9.942;2022-12-18T01:26:40;55.47;;;20.30;;
34278;SDS011;20538;51.528;9.942;2022-12-18T01:29:05;61.90;;;21.08;;
34278;SDS011;20538;51.528;9.942;2022-12-18T01:31:34;52.88;;;21.73;;
34278;SDS011;20538;51.528;9.942;2022-12-18T01:34:00;50.33;;;20.90;;
34278;SDS011;20538;51.528;9.942;2022-12-18T01:36:27;60.08;;;22.73;;
34278;SDS011;20538;51.528;9.942;2022-12-18T01:38:58;57.50;;;21.60;;
34278;SDS011;20538;51.528;9.942;2022-12-18T01:41:26;52.60;;;21.13;;
34278;SDS011;20538;51.528;9.942;2022-12-18T01:50:09;48.25;;;19.95;;
34278;SDS011;20538;51.528;9.942;2022-12-18T01:52:48;51.67;;;19.35;;
34278;SDS011;20538;51.528;9.942;2022-12-18T01:55:18;52.58;;;20.27;;
34278;SDS011;20538;51.528;9.942;2022-12-18T01:57:47;46.05;;;18.98;;
34278;SDS011;20538;51.528;9.942;2022-12-18T02:00:16;44.67;;;19.75;;
34278;SDS011;20538;51.528;9.942;2022-12-18T02:02:44;47.65;;;19.13;;
34278;SDS011;20538;51.528;9.942;2022-12-18T02:05:11;49.05;;;18.70;;
34278;SDS011;20538;51.528;9.942;2022-12-18T02:07:43;48.25;;;18.48;;
34278;SDS011;20538;51.528;9.942;2022-12-18T02:10:29;52.90;;;18.08;;
34278;SDS011;20538;51.528;9.942;2022-12-18T02:18:21;39.95;;;17.30;;
34278;SDS011;20538;51.528;9.942;2022-12-18T02:20:55;50.00;;;19.30;;
34278;SDS011;20538;51.528;9.942;2022-12-18T02:23:51;46.35;;;19.15;;
34278;SDS011;20538;51.528;9.942;2022-12-18T02:26:40;45.45;;;18.95;;
34278;SDS011;20538;51.528;9.942;2022-12-18T02:29:28;55.08;;;19.13;;
34278;SDS011;20538;51.528;9.942;2022-12-18T02:31:58;45.65;;;17.42;;
34278;SDS011;20538;51.528;9.942;2022-12-18T02:34:26;44.83;;;18.42;;
34278;SDS011;20538;51.528;9.942;2022-12-18T02:36:55;43.15;;;16.77;;
34278;SDS011;20538;51.528;9.942;2022-12-18T02:39:23;41.55;;;16.58;;
34278;SDS011;20538;51.528;9.942;2022-12-18T02:41:51;36.65;;;14.65;;
34278;SDS011;20538;51.528;9.942;2022-12-18T02:44:17;35.22;;;16.23;;
34278;SDS011;20538;51.528;9.942;2022-12-18T02:46:44;41.53;;;15.70;;
34278;SDS011;20538;51.528;9.942;2022-12-18T02:57:49;33.58;;;14.75;;
34278;SDS011;20538;51.528;9.942;2022-12-18T03:00:30;44.53;;;16.17;;
34278;SDS011;20538;51.528;9.942;2022-12-18T03:03:04;40.63;;;15.35;;
34278;SDS011;20538;51.528;9.942;2022-12-18T03:05:45;41.22;;;16.45;;
34278;SDS011;20538;51.528;9.942;2022-12-18T03:08:21;39.72;;;14.18;;
34278;SDS011;20538;51.528;9.942;2022-12-18T03:10:55;35.63;;;15.02;;
34278;SDS011;20538;51.528;9.942;2022-12-18T03:13:56;42.65;;;15.43;;
34278;SDS011;20538;51.528;9.942;2022-12-18T03:16:22;36.85;;;14.88;;
34278;SDS011;20538;51.528;9.942;2022-12-18T03:19:03;31.77;;;14.10;;
34278;SDS011;20538;51.528;9.942;2022-12-18T03:21:36;48.78;;;16.55;;
34278;SDS011;20538;51.528;9.942;2022-12-18T03:24:08;34.65;;;14.65;;
34278;SDS011;20538;51.528;9.942;2022-12-18T03:26:36;42.88;;;14.23;;
34278;SDS011;20538;51.528;9.942;2022-12-18T03:29:09;40.15;;;14.32;;
34278;SDS011;20538;51.528;9.942;2022-12-18T03:31:42;37.60;;;14.65;;
34278;SDS011;20538;51.528;9.942;2022-12-18T03:34:15;31.67;;;13.43;;
34278;SDS011;20538;51.528;9.942;2022-12-18T03:36:46;31.60;;;14.57;;
34278;SDS011;20538;51.528;9.942;2022-12-18T03:39:12;40.67;;;14.40;;
34278;SDS011;20538;51.528;9.942;2022-12-18T03:41:42;30.90;;;14.32;;
34278;SDS011;20538;51.528;9.942;2022-12-18T03:52:49;35.15;;;14.43;;
34278;SDS011;20538;51.528;9.942;2022-12-18T03:55:17;39.97;;;15.07;;
34278;SDS011;20538;51.528;9.942;2022-12-18T03:57:46;34.55;;;15.35;;
34278;SDS011;20538;51.528;9.942;2022-12-18T04:00:17;40.15;;;15.68;;
34278;SDS011;20538;51.528;9.942;2022-12-18T04:02:45;41.03;;;15.82;;
34278;SDS011;20538;51.528;9.942;2022-12-18T04:05:15;46.28;;;15.60;;
34278;SDS011;20538;51.528;9.942;2022-12-18T04:07:44;37.78;;;14.65;;
34278;SDS011;20538;51.528;9.942;2022-12-18T04:10:11;33.88;;;15.40;;
34278;SDS011;20538;51.528;9.942;2022-12-18T04:12:39;40.42;;;15.30;;
34278;SDS011;20538;51.528;9.942;2022-12-18T04:15:05;35.33;;;14.85;;
34278;SDS011;20538;51.528;9.942;2022-12-18T04:17:31;40.83;;;15.80;;
34278;SDS011;20538;51.528;9.942;2022-12-18T04:19:56;44.88;;;15.63;;
34278;SDS011;20538;51.528;9.942;2022-12-18T04:22:22;39.17;;;15.25;;
34278;SDS011;20538;51.528;9.942;2022-12-18T04:24:47;34.00;;;14.88;;
34278;SDS011;20538;51.528;9.942;2022-12-18T04:27:13;31.20;;;14.25;;
34278;SDS011;20538;51.528;9.942;2022-12-18T04:29:39;39.80;;;14.98;;
34278;SDS011;20538;51.528;9.942;2022-12-18T04:32:04;38.15;;;14.25;;
34278;SDS011;20538;51.528;9.942;2022-12-18T04:34:30;36.83;;;13.65;;
34278;SDS011;20538;51.528;9.942;2022-12-18T04:36:55;30.70;;;13.27;;
34278;SDS011;20538;51.528;9.942;2022-12-18T04:39:21;34.45;;;13.43;;
34278;SDS011;20538;51.528;9.942;2022-12-18T04:41:47;37.85;;;14.45;;
34278;SDS011;20538;51.528;9.942;2022-12-18T04:44:12;40.97;;;13.63;;
34278;SDS011;20538;51.528;9.942;2022-12-18T04:46:38;34.33;;;13.45;;
34278;SDS011;20538;51.528;9.942;2022-12-18T04:49:04;34.28;;;14.07;;
34278;SDS011;20538;51.528;9.942;2022-12-18T04:51:29;38.28;;;12.90;;
34278;SDS011;20538;51.528;9.942;2022-12-18T04:53:55;32.92;;;13.20;;
34278;SDS011;20538;51.528;9.942;2022-12-18T04:56:21;28.65;;;12.45;;
34278;SDS011;20538;51.528;9.942;2022-12-18T04:58:47;35.42;;;14.20;;
34278;SDS011;20538;51.528;9.942;2022-12-18T05:01:14;35.13;;;13.55;;
34278;SDS011;20538;51.528;9.942;2022-12-18T05:03:41;33.83;;;12.38;;
34278;SDS011;20538;51.528;9.942;2022-12-18T05:06:07;33.13;;;12.75;;
34278;SDS011;20538;51.528;9.942;2022-12-18T05:08:33;44.88;;;13.68;;
34278;SDS011;20538;51.528;9.942;2022-12-18T05:11:00;30.83;;;12.68;;
34278;SDS011;20538;51.528;9.942;2022-12-18T05:13:33;29.17;;;12.27;;
34278;SDS011;20538;51.528;9.942;2022-12-18T05:15:59;28.20;;;12.27;;
34278;SDS011;20538;51.528;9.942;2022-12-18T05:18:25;36.63;;;12.52;;
34278;SDS011;20538;51.528;9.942;2022-12-18T05:20:52;33.38;;;12.65;;
34278;SDS011;20538;51.528;9.942;2022-12-18T05:23:18;28.95;;;12.25;;
34278;SDS011;20538;51.528;9.942;2022-12-18T05:25:51;32.45;;;12.65;;
34278;SDS011;20538;51.528;9.942;2022-12-18T05:28:17;28.65;;;11.57;;
34278;SDS011;20538;51.528;9.942;2022-12-18T05:30:44;28.55;;;10.93;;
34278;SDS011;20538;51.528;9.942;2022-12-18T05:33:15;39.20;;;11.90;;
34278;SDS011;20538;51.528;9.942;2022-12-18T05:35:41;31.27;;;11.57;;
34278;SDS011;20538;51.528;9.942;2022-12-18T05:38:06;30.38;;;12.35;;
34278;SDS011;20538;51.528;9.942;2022-12-18T05:40:32;25.88;;;11.65;;
34278;SDS011;20538;51.528;9.942;2022-12-18T05:42:58;27.38;;;11.63;;
34278;SDS011;20538;51.528;9.942;2022-12-18T05:45:23;27.00;;;11.52;;
34278;SDS011;20538;51.528;9.942;2022-12-18T05:47:49;27.65;;;11.85;;
34278;SDS011;20538;51.528;9.942;2022-12-18T05:50:14;31.83;;;12.23;;
34278;SDS011;20538;51.528;9.942;2022-12-18T05:52:40;35.42;;;13.18;;
34278;SDS011;20538;51.528;9.942;2022-12-18T05:55:06;34.33;;;12.70;;
34278;SDS011;20538;51.528;9.942;2022-12-18T05:57:32;37.70;;;12.95;;
34278;SDS011;20538;51.528;9.942;2022-12-18T05:59:58;28.13;;;12.15;;
34278;SDS011;20538;51.528;9.942;2022-12-18T06:02:24;37.75;;;12.82;;
34278;SDS011;20538;51.528;9.942;2022-12-18T06:04:49;29.40;;;11.68;;
34278;SDS011;20538;51.528;9.942;2022-12-18T06:07:15;31.55;;;12.50;;
34278;SDS011;20538;51.528;9.942;2022-12-18T06:09:40;29.70;;;11.93;;
34278;SDS011;20538;51.528;9.942;2022-12-18T06:12:06;25.40;;;11.82;;
34278;SDS011;20538;51.528;9.942;2022-12-18T06:14:32;26.30;;;11.30;;
34278;SDS011;20538;51.528;9.942;2022-12-18T06:16:57;31.23;;;12.27;;
34278;SDS011;20538;51.528;9.942;2022-12-18T06:19:23;26.13;;;12.15;;
34278;SDS011;20538;51.528;9.942;2022-12-18T06:21:48;26.77;;;11.90;;
34278;SDS011;20538;51.528;9.942;2022-12-18T06:24:15;42.33;;;12.20;;
34278;SDS011;20538;51.528;9.942;2022-12-18T06:26:40;38.97;;;12.07;;
34278;SDS011;20538;51.528;9.942;2022-12-18T06:29:06;29.10;;;11.88;;
34278;SDS011;20538;51.528;9.942;2022-12-18T06:31:32;27.02;;;10.43;;
34278;SDS011;20538;51.528;9.942;2022-12-18T06:33:57;30.40;;;11.57;;
34278;SDS011;20538;51.528;9.942;2022-12-18T06:36:23;25.55;;;12.10;;
34278;SDS011;20538;51.528;9.942;2022-12-18T06:38:49;23.73;;;10.80;;
34278;SDS011;20538;51.528;9.942;2022-12-18T06:41:16;23.38;;;10.93;;
34278;SDS011;20538;51.528;9.942;2022-12-18T06:43:43;25.30;;;11.15;;
34278;SDS011;20538;51.528;9.942;2022-12-18T06:46:09;33.38;;;11.95;;
34278;SDS011;20538;51.528;9.942;2022-12-18T06:48:35;28.77;;;12.23;;
34278;SDS011;20538;51.528;9.942;2022-12-18T06:51:02;28.10;;;12.20;;
34278;SDS011;20538;51.528;9.942;2022-12-18T06:53:28;25.08;;;12.00;;
34278;SDS011;20538;51.528;9.942;2022-12-18T06:56:01;33.97;;;12.73;;
34278;SDS011;20538;51.528;9.942;2022-12-18T06:58:27;28.40;;;11.98;;
34278;SDS011;20538;51.528;9.942;2022-12-18T07:00:53;31.15;;;12.15;;
34278;SDS011;20538;51.528;9.942;2022-12-18T07:03:18;27.27;;;11.40;;
34278;SDS011;20538;51.528;9.942;2022-12-18T07:05:44;38.85;;;12.60;;
34278;SDS011;20538;51.528;9.942;2022-12-18T07:08:10;30.52;;;12.82;;
34278;SDS011;20538;51.528;9.942;2022-12-18T07:10:42;25.75;;;10.35;;
34278;SDS011;20538;51.528;9.942;2022-12-18T07:13:08;29.95;;;11.57;;
34278;SDS011;20538;51.528;9.942;2022-12-18T07:15:34;31.02;;;11.63;;
34278;SDS011;20538;51.528;9.942;2022-12-18T07:17:59;55.58;;;16.42;;
34278;SDS011;20538;51.528;9.942;2022-12-18T07:20:25;29.45;;;11.43;;
34278;SDS011;20538;51.528;9.942;2022-12-18T07:22:51;26.52;;;11.10;;
34278;SDS011;20538;51.528;9.942;2022-12-18T07:25:16;29.25;;;11.80;;
34278;SDS011;20538;51.528;9.942;2022-12-18T07:27:42;28.38;;;11.50;;
34278;SDS011;20538;51.528;9.942;2022-12-18T07:30:08;26.58;;;11.95;;
34278;SDS011;20538;51.528;9.942;2022-12-18T07:32:34;28.67;;;12.23;;
34278;SDS011;20538;51.528;9.942;2022-12-18T07:34:59;31.55;;;12.02;;
34278;SDS011;20538;51.528;9.942;2022-12-18T07:37:25;28.77;;;11.63;;
34278;SDS011;20538;51.528;9.942;2022-12-18T07:39:51;32.75;;;11.90;;
34278;SDS011;20538;51.528;9.942;2022-12-18T07:42:16;27.15;;;10.82;;
34278;SDS011;20538;51.528;9.942;2022-12-18T07:44:57;24.45;;;9.48;;
34278;SDS011;20538;51.528;9.942;2022-12-18T07:47:23;24.75;;;10.85;;
34278;SDS011;20538;51.528;9.942;2022-12-18T07:49:49;24.40;;;11.27;;
34278;SDS011;20538;51.528;9.942;2022-12-18T07:52:15;28.67;;;10.95;;
34278;SDS011;20538;51.528;9.942;2022-12-18T07:54:41;28.52;;;12.32;;
34278;SDS011;20538;51.528;9.942;2022-12-18T07:57:07;25.48;;;11.13;;
34278;SDS011;20538;51.528;9.942;2022-12-18T07:59:33;24.38;;;10.95;;
34278;SDS011;20538;51.528;9.942;2022-12-18T08:01:59;24.55;;;11.05;;
34278;SDS011;20538;51.528;9.942;2022-12-18T08:04:25;33.42;;;13.60;;
34278;SDS011;20538;51.528;9.942;2022-12-18T08:06:50;30.70;;;12.18;;
34278;SDS011;20538;51.528;9.942;2022-12-18T08:09:16;36.70;;;13.15;;
34278;SDS011;20538;51.528;9.942;2022-12-18T08:11:42;36.17;;;12.73;;
34278;SDS011;20538;51.528;9.942;2022-12-18T08:14:08;34.60;;;13.70;;
34278;SDS011;20538;51.528;9.942;2022-12-18T08:16:34;32.63;;;14.75;;
34278;SDS011;20538;51.528;9.942;2022-12-18T08:19:00;39.10;;;14.80;;
34278;SDS011;20538;51.528;9.942;2022-12-18T08:21:27;45.63;;;16.02;;
34278;SDS011;20538;51.528;9.942;2022-12-18T08:23:55;37.22;;;15.10;;
34278;SDS011;20538;51.528;9.942;2022-12-18T08:26:26;32.85;;;15.23;;
34278;SDS011;20538;51.528;9.942;2022-12-18T08:28:54;48.17;;;14.90;;
34278;SDS011;20538;51.528;9.942;2022-12-18T08:31:21;47.60;;;19.90;;
34278;SDS011;20538;51.528;9.942;2022-12-18T08:33:53;51.17;;;18.90;;
34278;SDS011;20538;51.528;9.942;2022-12-18T08:36:19;52.00;;;18.48;;
34278;SDS011;20538;51.528;9.942;2022-12-18T08:38:46;63.25;;;21.45;;
34278;SDS011;20538;51.528;9.942;2022-12-18T08:41:12;45.28;;;19.15;;
34278;SDS011;20538;51.528;9.942;2022-12-18T08:43:39;39.33;;;16.75;;
34278;SDS011;20538;51.528;9.942;2022-12-18T08:46:24;40.92;;;16.98;;
34278;SDS011;20538;51.528;9.942;2022-12-18T08:48:52;31.50;;;15.32;;
34278;SDS011;20538;51.528;9.942;2022-12-18T08:51:19;31.23;;;14.65;;
34278;SDS011;20538;51.528;9.942;2022-12-18T08:53:48;34.72;;;14.80;;
34278;SDS011;20538;51.528;9.942;2022-12-18T08:56:14;32.97;;;15.00;;
34278;SDS011;20538;51.528;9.942;2022-12-18T08:58:40;35.33;;;15.70;;
34278;SDS011;20538;51.528;9.942;2022-12-18T09:01:07;29.60;;;13.65;;
34278;SDS011;20538;51.528;9.942;2022-12-18T09:03:34;27.02;;;13.07;;
34278;SDS011;20538;51.528;9.942;2022-12-18T09:06:00;24.15;;;13.07;;
34278;SDS011;20538;51.528;9.942;2022-12-18T09:08:26;30.30;;;12.90;;
34278;SDS011;20538;51.528;9.942;2022-12-18T09:10:52;30.17;;;13.10;;
34278;SDS011;20538;51.528;9.942;2022-12-18T09:13:18;31.30;;;13.10;;
34278;SDS011;20538;51.528;9.942;2022-12-18T09:15:44;29.38;;;12.55;;
34278;SDS011;20538;51.528;9.942;2022-12-18T09:18:16;32.08;;;12.32;;
34278;SDS011;20538;51.528;9.942;2022-12-18T09:20:49;28.98;;;14.07;;
34278;SDS011;20538;51.528;9.942;2022-12-18T09:23:17;27.17;;;12.70;;
34278;SDS011;20538;51.528;9.942;2022-12-18T09:25:43;47.03;;;16.10;;
34278;SDS011;20538;51.528;9.942;2022-12-18T09:28:10;33.88;;;15.77;;
34278;SDS011;20538;51.528;9.942;2022-12-18T09:30:42;38.10;;;17.00;;
34278;SDS011;20538;51.528;9.942;2022-12-18T09:33:09;40.03;;;16.52;;
34278;SDS011;20538;51.528;9.942;2022-12-18T09:35:36;41.65;;;16.45;;
34278;SDS011;20538;51.528;9.942;2022-12-18T09:38:02;38.42;;;15.23;;
34278;SDS011;20538;51.528;9.942;2022-12-18T09:40:29;39.15;;;15.98;;
34278;SDS011;20538;51.528;9.942;2022-12-18T09:43:00;38.85;;;16.13;;
34278;SDS011;20538;51.528;9.942;2022-12-18T09:45:34;33.10;;;15.45;;
34278;SDS011;20538;51.528;9.942;2022-12-18T09:48:16;31.33;;;13.70;;
34278;SDS011;20538;51.528;9.942;2022-12-18T09:50:48;32.50;;;14.02;;
34278;SDS011;20538;51.528;9.942;2022-12-18T09:53:20;30.60;;;12.90;;
34278;SDS011;20538;51.528;9.942;2022-12-18T09:55:51;27.83;;;13.55;;
34278;SDS011;20538;51.528;9.942;2022-12-18T09:58:30;24.02;;;13.20;;
34278;SDS011;20538;51.528;9.942;2022-12-18T10:01:01;30.25;;;14.23;;
34278;SDS011;20538;51.528;9.942;2022-12-18T10:03:27;29.42;;;13.60;;
34278;SDS011;20538;51.528;9.942;2022-12-18T10:05:59;34.17;;;14.45;;
34278;SDS011;20538;51.528;9.942;2022-12-18T10:11:29;31.40;;;14.95;;
34278;SDS011;20538;51.528;9.942;2022-12-18T10:16:57;26.13;;;13.20;;
34278;SDS011;20538;51.528;9.942;2022-12-18T10:20:05;33.95;;;12.93;;
34278;SDS011;20538;51.528;9.942;2022-12-18T10:28:00;29.20;;;13.63;;
34278;SDS011;20538;51.528;9.942;2022-12-18T10:30:38;29.83;;;14.38;;
34278;SDS011;20538;51.528;9.942;2022-12-18T10:33:18;27.42;;;14.52;;
34278;SDS011;20538;51.528;9.942;2022-12-18T10:35:47;35.20;;;16.15;;
34278;SDS011;20538;51.528;9.942;2022-12-18T10:43:42;31.67;;;14.73;;
34278;SDS011;20538;51.528;9.942;2022-12-18T10:48:34;46.60;;;19.45;;
34278;SDS011;20538;51.528;9.942;2022-12-18T10:51:06;36.22;;;17.00;;
34278;SDS011;20538;51.528;9.942;2022-12-18T10:53:33;40.53;;;17.10;;
34278;SDS011;20538;51.528;9.942;2022-12-18T10:56:02;32.03;;;14.82;;
34278;SDS011;20538;51.528;9.942;2022-12-18T10:58:31;28.90;;;13.52;;
34278;SDS011;20538;51.528;9.942;2022-12-18T11:01:09;25.90;;;11.77;;
34278;SDS011;20538;51.528;9.942;2022-12-18T11:06:13;34.72;;;14.82;;
34278;SDS011;20538;51.528;9.942;2022-12-18T11:08:41;32.80;;;14.05;;
34278;SDS011;20538;51.528;9.942;2022-12-18T11:11:15;23.58;;;11.43;;
34278;SDS011;20538;51.528;9.942;2022-12-18T11:13:59;25.05;;;11.98;;
34278;SDS011;20538;51.528;9.942;2022-12-18T11:16:33;21.93;;;9.53;;
34278;SDS011;20538;51.528;9.942;2022-12-18T11:21:53;23.92;;;11.10;;
34278;SDS011;20538;51.528;9.942;2022-12-18T11:26:51;23.65;;;10.55;;
34278;SDS011;20538;51.528;9.942;2022-12-18T11:29:18;19.98;;;9.80;;
34278;SDS011;20538;51.528;9.942;2022-12-18T11:31:48;21.92;;;11.25;;
34278;SDS011;20538;51.528;9.942;2022-12-18T11:34:16;20.50;;;8.15;;
34278;SDS011;20538;51.528;9.942;2022-12-18T11:36:53;17.75;;;8.65;;
34278;SDS011;20538;51.528;9.942;2022-12-18T11:39:20;14.38;;;8.10;;
34278;SDS011;20538;51.528;9.942;2022-12-18T11:41:56;22.77;;;12.57;;
34278;SDS011;20538;51.528;9.942;2022-12-18T11:44:45;15.27;;;7.57;;
34278;SDS011;20538;51.528;9.942;2022-12-18T11:47:22;18.08;;;7.75;;
34278;SDS011;20538;51.528;9.942;2022-12-18T11:49:56;15.50;;;7.45;;
34278;SDS011;20538;51.528;9.942;2022-12-18T11:52:27;14.80;;;8.82;;
34278;SDS011;20538;51.528;9.942;2022-12-18T11:55:01;17.17;;;8.83;;
34278;SDS011;20538;51.528;9.942;2022-12-18T12:00:18;19.27;;;10.25;;
34278;SDS011;20538;51.528;9.942;2022-12-18T12:05:31;20.35;;;9.48;;
34278;SDS011;20538;51.528;9.942;2022-12-18T12:08:05;19.55;;;8.63;;
34278;SDS011;20538;51.528;9.942;2022-12-18T12:11:38;17.48;;;7.55;;
34278;SDS011;20538;51.528;9.942;2022-12-18T12:13:58;17.30;;;8.20;;
34278;SDS011;20538;51.528;9.942;2022-12-18T12:19:20;18.67;;;7.93;;
34278;SDS011;20538;51.528;9.942;2022-12-18T12:30:21;12.68;;;5.82;;
34278;SDS011;20538;51.528;9.942;2022-12-18T12:33:13;10.07;;;5.18;;
34278;SDS011;20538;51.528;9.942;2022-12-18T12:35:47;12.13;;;5.93;;
34278;SDS011;20538;51.528;9.942;2022-12-18T12:38:22;9.95;;;5.47;;
34278;SDS011;20538;51.528;9.942;2022-12-18T12:41:02;11.90;;;6.85;;
34278;SDS011;20538;51.528;9.942;2022-12-18T12:43:51;10.35;;;4.72;;
34278;SDS011;20538;51.528;9.942;2022-12-18T12:46:20;12.32;;;5.03;;
34278;SDS011;20538;51.528;9.942;2022-12-18T12:48:52;11.57;;;4.90;;
34278;SDS011;20538;51.528;9.942;2022-12-18T12:51:38;10.07;;;4.95;;
34278;SDS011;20538;51.528;9.942;2022-12-18T12:54:11;8.60;;;4.70;;
34278;SDS011;20538;51.528;9.942;2022-12-18T12:59:32;11.50;;;4.47;;
34278;SDS011;20538;51.528;9.942;2022-12-18T13:07:05;8.98;;;4.78;;
34278;SDS011;20538;51.528;9.942;2022-12-18T13:10:10;8.27;;;5.03;;
34278;SDS011;20538;51.528;9.942;2022-12-18T13:13:15;10.13;;;4.80;;
34278;SDS011;20538;51.528;9.942;2022-12-18T13:20:47;11.15;;;5.35;;
34278;SDS011;20538;51.528;9.942;2022-12-18T13:23:28;14.85;;;6.18;;
34278;SDS011;20538;51.528;9.942;2022-12-18T13:30:59;13.50;;;6.10;;
34278;SDS011;20538;51.528;9.942;2022-12-18T13:36:01;12.32;;;6.50;;
34278;SDS011;20538;51.528;9.942;2022-12-18T13:38:46;11.45;;;6.55;;
34278;SDS011;20538;51.528;9.942;2022-12-18T13:44:09;25.50;;;9.43;;
34278;SDS011;20538;51.528;9.942;2022-12-18T13:46:44;18.73;;;8.00;;
34278;SDS011;20538;51.528;9.942;2022-12-18T13:51:39;26.80;;;10.90;;
34278;SDS011;20538;51.528;9.942;2022-12-18T13:54:26;19.65;;;8.65;;
34278;SDS011;20538;51.528;9.942;2022-12-18T13:56:52;30.05;;;13.55;;
34278;SDS011;20538;51.528;9.942;2022-12-18T14:01:55;28.73;;;9.57;;
34278;SDS011;20538;51.528;9.942;2022-12-18T14:04:29;22.60;;;9.02;;
34278;SDS011;20538;51.528;9.942;2022-12-18T14:06:57;18.77;;;7.70;;
34278;SDS011;20538;51.528;9.942;2022-12-18T14:09:42;15.63;;;7.30;;
34278;SDS011;20538;51.528;9.942;2022-12-18T14:12:18;14.10;;;6.45;;
34278;SDS011;20538;51.528;9.942;2022-12-18T14:15:20;11.30;;;4.75;;
34278;SDS011;20538;51.528;9.942;2022-12-18T14:17:53;8.93;;;5.10;;
34278;SDS011;20538;51.528;9.942;2022-12-18T14:20:50;10.55;;;5.20;;
34278;SDS011;20538;51.528;9.942;2022-12-18T14:23:36;11.77;;;4.80;;
34278;SDS011;20538;51.528;9.942;2022-12-18T14:26:24;10.98;;;5.05;;
34278;SDS011;20538;51.528;9.942;2022-12-18T14:29:17;9.20;;;5.25;;
34278;SDS011;20538;51.528;9.942;2022-12-18T14:32:06;13.27;;;5.28;;
34278;SDS011;20538;51.528;9.942;2022-12-18T14:34:35;11.48;;;5.25;;
34278;SDS011;20538;51.528;9.942;2022-12-18T14:37:01;13.35;;;5.45;;
34278;SDS011;20538;51.528;9.942;2022-12-18T14:39:26;13.60;;;5.22;;
34278;SDS011;20538;51.528;9.942;2022-12-18T14:41:52;13.25;;;5.05;;
34278;SDS011;20538;51.528;9.942;2022-12-18T14:44:18;9.52;;;5.00;;
34278;SDS011;20538;51.528;9.942;2022-12-18T14:46:46;11.68;;;5.00;;
34278;SDS011;20538;51.528;9.942;2022-12-18T14:52:38;11.95;;;5.32;;
34278;SDS011;20538;51.528;9.942;2022-12-18T14:54:56;10.63;;;5.38;;
34278;SDS011;20538;51.528;9.942;2022-12-18T14:57:23;11.10;;;5.35;;
34278;SDS011;20538;51.528;9.942;2022-12-18T14:59:53;11.70;;;4.97;;
34278;SDS011;20538;51.528;9.942;2022-12-18T15:02:28;10.30;;;5.40;;
34278;SDS011;20538;51.528;9.942;2022-12-18T15:05:02;13.40;;;6.07;;
34278;SDS011;20538;51.528;9.942;2022-12-18T15:07:39;12.02;;;6.25;;
34278;SDS011;20538;51.528;9.942;2022-12-18T15:10:20;10.10;;;5.78;;
34278;SDS011;20538;51.528;9.942;2022-12-18T15:23:24;11.50;;;5.97;;
34278;SDS011;20538;51.528;9.942;2022-12-18T15:26:03;11.50;;;6.03;;
34278;SDS011;20538;51.528;9.942;2022-12-18T15:36:17;14.23;;;6.93;;
34278;SDS011;20538;51.528;9.942;2022-12-18T15:38:46;15.10;;;6.78;;
34278;SDS011;20538;51.528;9.942;2022-12-18T15:41:16;15.52;;;7.25;;
34278;SDS011;20538;51.528;9.942;2022-12-18T15:43:44;14.07;;;6.68;;
34278;SDS011;20538;51.528;9.942;2022-12-18T15:48:47;13.82;;;5.90;;
34278;SDS011;20538;51.528;9.942;2022-12-18T15:51:15;17.65;;;6.63;;
34278;SDS011;20538;51.528;9.942;2022-12-18T15:53:41;16.02;;;6.47;;
34278;SDS011;20538;51.528;9.942;2022-12-18T15:56:11;16.23;;;6.35;;
34278;SDS011;20538;51.528;9.942;2022-12-18T15:58:56;14.65;;;6.57;;
34278;SDS011;20538;51.528;9.942;2022-12-18T16:01:23;17.70;;;6.90;;
34278;SDS011;20538;51.528;9.942;2022-12-18T16:03:53;12.48;;;6.85;;
34278;SDS011;20538;51.528;9.942;2022-12-18T16:06:20;17.88;;;7.68;;
34278;SDS011;20538;51.528;9.942;2022-12-18T16:08:46;15.13;;;7.50;;
34278;SDS011;20538;51.528;9.942;2022-12-18T16:16:59;15.83;;;7.43;;
34278;SDS011;20538;51.528;9.942;2022-12-18T16:19:26;18.08;;;7.43;;
34278;SDS011;20538;51.528;9.942;2022-12-18T16:21:54;21.58;;;8.68;;
34278;SDS011;20538;51.528;9.942;2022-12-18T16:24:22;15.38;;;8.23;;
34278;SDS011;20538;51.528;9.942;2022-12-18T16:26:51;15.80;;;7.95;;
34278;SDS011;20538;51.528;9.942;2022-12-18T16:29:18;16.15;;;7.63;;
34278;SDS011;20538;51.528;9.942;2022-12-18T16:31:49;18.33;;;7.78;;
34278;SDS011;20538;51.528;9.942;2022-12-18T16:36:46;19.50;;;8.93;;
34278;SDS011;20538;51.528;9.942;2022-12-18T16:39:12;26.77;;;9.63;;
34278;SDS011;20538;51.528;9.942;2022-12-18T16:41:47;18.55;;;9.10;;
34278;SDS011;20538;51.528;9.942;2022-12-18T16:44:21;18.33;;;7.65;;
34278;SDS011;20538;51.528;9.942;2022-12-18T16:46:47;17.48;;;8.10;;
34278;SDS011;20538;51.528;9.942;2022-12-18T16:49:13;19.60;;;8.60;;
34278;SDS011;20538;51.528;9.942;2022-12-18T16:51:41;18.77;;;8.65;;
34278;SDS011;20538;51.528;9.942;2022-12-18T16:54:07;18.65;;;8.57;;
34278;SDS011;20538;51.528;9.942;2022-12-18T16:56:33;16.67;;;8.73;;